Map

Track Data

SID SEASON NUMBER BASIN SUBBASIN NAME ISO_TIME NATURE LAT LON WMO_WIND WMO_PRES WMO_AGENCY TRACK_TYPE DIST2LAND LANDFALL IFLAG USA_AGENCY USA_ATCF_ID USA_LAT USA_LON USA_RECORD USA_STATUS USA_WIND USA_PRES USA_SSHS USA_R34_NE USA_R34_SE USA_R34_SW USA_R34_NW USA_R50_NE USA_R50_SE USA_R50_SW USA_R50_NW USA_R64_NE USA_R64_SE USA_R64_SW USA_R64_NW USA_POCI USA_ROCI USA_RMW USA_EYE TOKYO_LAT TOKYO_LON TOKYO_GRADE TOKYO_WIND TOKYO_PRES TOKYO_R50_DIR TOKYO_R50_LONG TOKYO_R50_SHORT TOKYO_R30_DIR TOKYO_R30_LONG TOKYO_R30_SHORT TOKYO_LAND CMA_LAT CMA_LON CMA_CAT CMA_WIND CMA_PRES HKO_LAT HKO_LON HKO_CAT HKO_WIND HKO_PRES NEWDELHI_LAT NEWDELHI_LON NEWDELHI_GRADE NEWDELHI_WIND NEWDELHI_PRES NEWDELHI_CI NEWDELHI_DP NEWDELHI_POCI REUNION_LAT REUNION_LON REUNION_TYPE REUNION_WIND REUNION_PRES REUNION_TNUM REUNION_CI REUNION_RMW REUNION_R34_NE REUNION_R34_SE REUNION_R34_SW REUNION_R34_NW REUNION_R50_NE REUNION_R50_SE REUNION_R50_SW REUNION_R50_NW REUNION_R64_NE REUNION_R64_SE REUNION_R64_SW REUNION_R64_NW BOM_LAT BOM_LON BOM_TYPE BOM_WIND BOM_PRES BOM_TNUM BOM_CI BOM_RMW BOM_R34_NE BOM_R34_SE BOM_R34_SW BOM_R34_NW BOM_R50_NE BOM_R50_SE BOM_R50_SW BOM_R50_NW BOM_R64_NE BOM_R64_SE BOM_R64_SW BOM_R64_NW BOM_ROCI BOM_POCI BOM_EYE BOM_POS_METHOD BOM_PRES_METHOD NADI_LAT NADI_LON NADI_CAT NADI_WIND NADI_PRES WELLINGTON_LAT WELLINGTON_LON WELLINGTON_WIND WELLINGTON_PRES DS824_LAT DS824_LON DS824_STAGE DS824_WIND DS824_PRES TD9636_LAT TD9636_LON TD9636_STAGE TD9636_WIND TD9636_PRES TD9635_LAT TD9635_LON TD9635_WIND TD9635_PRES TD9635_ROCI NEUMANN_LAT NEUMANN_LON NEUMANN_CLASS NEUMANN_WIND NEUMANN_PRES MLC_LAT MLC_LON MLC_CLASS MLC_WIND MLC_PRES USA_GUST BOM_GUST BOM_GUST_PER REUNION_GUST REUNION_GUST_PER USA_SEAHGT USA_SEARAD_NE USA_SEARAD_SE USA_SEARAD_SW USA_SEARAD_NW STORM_SPEED STORM_DIR
1912034S11055 1912 4 SI MM NOT_NAMED 1912-02-03 06:00:00 NR -10.8000 55.1000 reunion main 617 612 _____O________ -1 -10.8000 55.1000 99 9.90000 1 0
1912034S11055 1912 4 SI MM NOT_NAMED 1912-02-03 09:00:00 NR -10.8576 55.0743 main 612 612 _____P________ -1 -10.8576 55.0743 99 1 207
1912034S11055 1912 4 SI MM NOT_NAMED 1912-02-03 12:00:00 NR -10.8867 55.0615 main 612 602 _____P____O___ -1 -10.9156 55.0486 99 -10.8000 55.1000 2 1 207
1912034S11055 1912 4 SI MM NOT_NAMED 1912-02-03 15:00:00 NR -10.9508 55.0295 main 598 598 _____P____P___ -1 -10.9746 55.0231 99 -10.9031 55.0422 2 2 208
1912034S11055 1912 4 SI MM NOT_NAMED 1912-02-03 18:00:00 NR -11.0221 54.9934 main 598 594 _____P____P___ -1 -11.0350 54.9978 99 -11.0050 54.9876 2 2 203
1912034S11055 1912 4 SI MM NOT_NAMED 1912-02-03 21:00:00 NR -11.1008 54.9559 main 594 580 _____P____P___ -1 -11.0973 54.9727 99 -11.1044 54.9391 2 2 205
1912034S11055 1912 4 SI MM NOT_NAMED 1912-02-04 00:00:00 TS -11.1831 54.9213 main 580 576 _____P___OO___ -1 -11.1619 54.9480 99 -11.2000 54.9000 TC 35 -11.2000 54.9000 2 2 198
1912034S11055 1912 4 SI MM NOT_NAMED 1912-02-04 03:00:00 TS -11.2690 54.9002 main 576 572 _____P___PP___ -1 -11.2293 54.9238 99 -11.3025 54.9100 TC 35 -11.2919 54.8718 2 2 195
1912034S11055 1912 4 SI MM NOT_NAMED 1912-02-04 06:00:00 TS -11.3582 54.8818 reunion main 572 572 _____O___OP___ -1 -11.3000 54.9000 99 9.90000 -11.4000 54.9000 TC 35 -11.3850 54.8499 2 2 191
1912034S11055 1912 4 SI MM NOT_NAMED 1912-02-04 09:00:00 TS -11.4510 54.8540 main 569 558 _____P___PP___ -1 -11.3750 54.8765 99 -11.4925 54.8575 TC 35 -11.4856 54.8281 2 2 199
1912034S11055 1912 4 SI MM NOT_NAMED 1912-02-04 12:00:00 TS -11.5524 54.8174 main 555 552 _____P___OO___ -1 -11.4572 54.8521 99 -11.6000 54.8000 TC 35 -11.6000 54.8000 2 2 196
1912034S11055 1912 4 SI MM NOT_NAMED 1912-02-04 15:00:00 TS -11.6693 54.7788 main 552 538 _____P___PP___ -1 -11.5502 54.8252 99 -11.7425 54.7500 TC 35 -11.7153 54.7612 2 3 198
1912034S11055 1912 4 SI MM NOT_NAMED 1912-02-04 18:00:00 TS -11.8017 54.7364 main 538 535 _____P___OP___ -1 -11.6575 54.7944 99 -11.9000 54.7000 TC 35 -11.8475 54.7149 2 3 198
1912034S11055 1912 4 SI MM NOT_NAMED 1912-02-04 21:00:00 TS -11.9412 54.6922 main 535 519 _____P___PP___ -1 -11.7826 54.7579 99 -12.0350 54.6575 TC 35 -12.0059 54.6612 2 3 198
1912034S11055 1912 4 SI MM NOT_NAMED 1912-02-05 00:00:00 TS -12.1097 54.6381 main 519 513 _____P___OO___ -1 -11.9290 54.7144 99 -12.2000 54.6000 TC 35 -12.2000 54.6000 2 4 199
1912034S11055 1912 4 SI MM NOT_NAMED 1912-02-05 03:00:00 TS -12.3182 54.5662 main 513 498 _____P___PP___ -1 -12.1003 54.6623 99 -12.4275 54.5000 TC 35 -12.4269 54.5362 2 5 198
1912034S11055 1912 4 SI MM NOT_NAMED 1912-02-05 06:00:00 TS -12.5633 54.4883 reunion main 495 478 _____O___OP___ -1 -12.3000 54.6000 99 9.90000 -12.7000 54.4000 TC 35 -12.6900 54.4649 2 5 195
1912034S11055 1912 4 SI MM NOT_NAMED 1912-02-05 09:00:00 TS -12.8376 54.4186 main 478 461 _____P___PP___ -1 -12.5445 54.5197 99 -12.9850 54.3499 TC 35 -12.9831 54.3862 2 6 194
1912034S11055 1912 4 SI MM NOT_NAMED 1912-02-05 12:00:00 TS -13.1399 54.3428 main 461 451 _____P___OO___ -1 -12.8198 54.4284 99 -13.3000 54.3000 TC 35 -13.3000 54.3000 2 7 195
1912034S11055 1912 4 SI MM NOT_NAMED 1912-02-05 15:00:00 TS -13.4699 54.2465 main 441 418 _____P___PP___ -1 -13.1183 54.3286 99 -13.6425 54.2075 TC 35 -13.6488 54.2032 2 7 196
1912034S11055 1912 4 SI MM NOT_NAMED 1912-02-05 18:00:00 TS -13.8159 54.1411 main 418 396 _____P___OP___ -1 -13.4327 54.2233 99 -14.0000 54.1000 TC 35 -14.0150 54.1002 2 7 196
1912034S11055 1912 4 SI MM NOT_NAMED 1912-02-05 21:00:00 TS -14.1648 54.0348 main 392 373 _____P___PP___ -1 -13.7555 54.1150 99 -14.3650 53.9925 TC 35 -14.3738 53.9970 2 7 196
1912034S11055 1912 4 SI MM NOT_NAMED 1912-02-06 00:00:00 TS -14.4931 53.9355 main 373 368 _____P___OO___ -1 -14.0793 54.0065 99 -14.7000 53.9000 TC 35 -14.7000 53.9000 2 6 196
1912034S11055 1912 4 SI MM NOT_NAMED 1912-02-06 03:00:00 TS -14.7780 53.8560 main 368 355 _____P___PP___ -1 -14.3966 53.9005 99 -14.9725 53.8499 TC 35 -14.9650 53.8177 2 6 195
1912034S11055 1912 4 SI MM NOT_NAMED 1912-02-06 06:00:00 TS -15.0317 53.7808 reunion main 355 343 _____O___OP___ -1 -14.7000 53.8000 99 9.90000 -15.2000 53.8000 TC 35 -15.1950 53.7423 2 5 198
1912034S11055 1912 4 SI MM NOT_NAMED 1912-02-06 09:00:00 TS -15.2582 53.6948 main 343 332 _____P___PP___ -1 -14.9645 53.7136 99 -15.4075 53.7000 TC 35 -15.4025 53.6708 2 5 200
1912034S11055 1912 4 SI MM NOT_NAMED 1912-02-06 12:00:00 TS -15.4730 53.6104 main 332 323 _____P___OO___ -1 -15.2189 53.6312 99 -15.6000 53.6000 TC 35 -15.6000 53.6000 2 5 199
1912034S11055 1912 4 SI MM NOT_NAMED 1912-02-06 15:00:00 TS -15.6892 53.5425 main 323 323 _____P___PP___ -1 -15.4645 53.5525 99 -15.8000 53.5499 TC 35 -15.8031 53.5249 2 5 197
1912034S11055 1912 4 SI MM NOT_NAMED 1912-02-06 18:00:00 TS -15.9008 53.4757 main 326 317 _____P___OP___ -1 -15.7023 53.4771 99 -16.0000 53.5000 TC 35 -16.0000 53.4499 2 4 199
1912034S11055 1912 4 SI MM NOT_NAMED 1912-02-06 21:00:00 TS -16.1102 53.3956 main 320 312 _____P___PP___ -1 -15.9336 53.4045 99 -16.2000 53.4075 TC 35 -16.1969 53.3749 2 5 201
1912034S11055 1912 4 SI MM NOT_NAMED 1912-02-07 00:00:00 TS -16.3199 53.3115 main 316 313 _____P___OO___ -1 -16.1596 53.3344 99 -16.4000 53.3000 TC 35 -16.4000 53.3000 2 5 201
1912034S11055 1912 4 SI MM NOT_NAMED 1912-02-07 03:00:00 TS -16.5305 53.2266 main 313 313 _____P___PP___ -1 -16.3813 53.2664 99 -16.5925 53.1925 TC 35 -16.6178 53.2209 2 5 200
1912034S11055 1912 4 SI MM NOT_NAMED 1912-02-07 06:00:00 TS -16.7475 53.1475 reunion main 313 313 _____O___OP___ -1 -16.6000 53.2000 99 9.90000 -16.8000 53.1000 TC 35 -16.8425 53.1425 2 5 198
1912034S11055 1912 4 SI MM NOT_NAMED 1912-02-07 09:00:00 TS -16.9815 53.0791 main 327 322 _____P___PP___ -1 -16.8237 53.1271 99 -17.0500 53.0425 TC 35 -17.0709 53.0678 2 5 195
1912034S11055 1912 4 SI MM NOT_NAMED 1912-02-07 12:00:00 TS -17.2145 53.0185 main 327 327 _____P___OO___ -1 -17.0434 53.0556 99 -17.3000 53.0000 TC 35 -17.3000 53.0000 2 5 195
1912034S11055 1912 4 SI MM NOT_NAMED 1912-02-07 15:00:00 TS -17.4295 52.9583 main 336 332 _____P___PP___ -1 -17.2595 52.9863 99 -17.5000 52.9500 TC 35 -17.5291 52.9387 2 4 194
1912034S11055 1912 4 SI MM NOT_NAMED 1912-02-07 18:00:00 TS -17.6433 52.9016 main 338 338 _____P___OP___ -1 -17.4725 52.9200 99 -17.7000 52.9000 TC 35 -17.7575 52.8850 2 5 193
1912034S11055 1912 4 SI MM NOT_NAMED 1912-02-07 21:00:00 TS -17.8716 52.8487 main 341 341 _____P___PP___ -1 -17.6826 52.8574 99 -17.9500 52.8500 TC 35 -17.9822 52.8387 2 5 192
1912034S11055 1912 4 SI MM NOT_NAMED 1912-02-08 00:00:00 TS -18.0968 52.7998 main 349 349 _____P___OO___ -1 -17.8903 52.7994 99 -18.2000 52.8000 TC 35 -18.2000 52.8000 2 4 191
1912034S11055 1912 4 SI MM NOT_NAMED 1912-02-08 03:00:00 TS -18.3022 52.7523 main 355 345 _____P___PP___ -1 -18.0960 52.7467 99 -18.4075 52.7425 TC 35 -18.4031 52.7677 2 4 191
1912034S11055 1912 4 SI MM NOT_NAMED 1912-02-08 06:00:00 TS -18.5000 52.7141 reunion main 349 349 _____O___OP___ -1 -18.3000 52.7000 99 9.90000 -18.6000 52.7000 TC 35 -18.6000 52.7424 2 4 189
1912034S11055 1912 4 SI MM NOT_NAMED 1912-02-08 09:00:00 TS -18.7011 52.6908 main 352 352 _____P___PP___ -1 -18.5065 52.6515 99 -18.8000 52.6999 TC 35 -18.7969 52.7209 2 4 185
1912034S11055 1912 4 SI MM NOT_NAMED 1912-02-08 12:00:00 TS -18.9037 52.6694 main 356 348 _____P___OO___ -1 -18.7112 52.6082 99 -19.0000 52.7000 TC 35 -19.0000 52.7000 2 4 188
1912034S11055 1912 4 SI MM NOT_NAMED 1912-02-08 15:00:00 TS -19.1122 52.6293 main 351 337 _____P___PP___ -1 -18.9140 52.5708 99 -19.1925 52.6500 TC 35 -19.2300 52.6669 2 4 189
1912034S11055 1912 4 SI MM NOT_NAMED 1912-02-08 18:00:00 TS -19.3266 52.5917 main 337 324 _____P___OP___ -1 -19.1149 52.5401 99 -19.4000 52.6000 TC 35 -19.4650 52.6351 2 4 187
1912034S11055 1912 4 SI MM NOT_NAMED 1912-02-08 21:00:00 TS -19.5547 52.5734 main 318 307 _____P___PP___ -1 -19.3140 52.5170 99 -19.6575 52.5925 TC 35 -19.6925 52.6107 2 4 182
1912034S11055 1912 4 SI MM NOT_NAMED 1912-02-09 00:00:00 TS -19.7704 52.5673 main 307 302 _____P___OO___ -1 -19.5112 52.5020 99 -19.9000 52.6000 TC 35 -19.9000 52.6000 2 4 0
1912034S11055 1912 4 SI MM NOT_NAMED 1912-02-09 03:00:00 TS -19.9450 52.5651 main 302 292 _____P___PP___ -1 -19.7065 52.4961 99 -20.0650 52.5925 TC 35 -20.0634 52.6065 2 3 0
1912034S11055 1912 4 SI MM NOT_NAMED 1912-02-09 06:00:00 TS -20.1025 52.5758 reunion main 292 284 _____O___OP___ -1 -19.9000 52.5000 99 9.90000 -20.2000 52.6000 TC 35 -20.2075 52.6275 2 3 172
1912034S11055 1912 4 SI MM NOT_NAMED 1912-02-09 09:00:00 TS -20.2608 52.6035 main 284 281 _____P___PP___ -1 -20.0921 52.5084 99 -20.3425 52.6425 TC 35 -20.3478 52.6597 2 3 171
1912034S11055 1912 4 SI MM NOT_NAMED 1912-02-09 12:00:00 TS -20.4274 52.6423 main 281 265 _____P___OO___ -1 -20.2821 52.5268 99 -20.5000 52.7000 TC 35 -20.5000 52.7000 2 4 170
1912034S11055 1912 4 SI MM NOT_NAMED 1912-02-09 15:00:00 TS -20.6175 52.6823 main 265 261 _____P___PP___ -1 -20.4704 52.5542 99 -20.6925 52.7500 TC 35 -20.6897 52.7428 2 4 168
1912034S11055 1912 4 SI MM NOT_NAMED 1912-02-09 18:00:00 TS -20.8166 52.7275 main 261 249 _____P___OP___ -1 -20.6574 52.5900 99 -20.9000 52.8000 TC 35 -20.8925 52.7925 2 4 167
1912034S11055 1912 4 SI MM NOT_NAMED 1912-02-09 21:00:00 TS -21.0142 52.7764 main 249 248 _____P___PP___ -1 -20.8435 52.6332 99 -21.1000 52.8500 TC 35 -21.0991 52.8459 2 4 166
1912034S11055 1912 4 SI MM NOT_NAMED 1912-02-10 00:00:00 TS -21.2097 52.8277 main 249 239 _____P___OO___ -1 -21.0290 52.6832 99 -21.3000 52.9000 TC 35 -21.3000 52.9000 2 4 166
1912034S11055 1912 4 SI MM NOT_NAMED 1912-02-10 03:00:00 TS -21.4000 52.8784 main 240 240 _____P___PP___ -1 -21.2144 52.7390 99 -21.5075 52.9500 TC 35 -21.4781 52.9460 2 4 166
1912034S11055 1912 4 SI MM NOT_NAMED 1912-02-10 06:00:00 TS -21.5833 52.9309 reunion main 244 237 _____O___OP___ -1 -21.4000 52.8000 99 9.90000 -21.7000 53.0000 TC 35 -21.6500 52.9926 2 4 164
1912034S11055 1912 4 SI MM NOT_NAMED 1912-02-10 09:00:00 TS -21.7550 52.9840 main 240 240 _____P___PP___ -1 -21.5932 52.8591 99 -21.8500 53.0500 TC 35 -21.8219 53.0429 2 4 164
1912034S11055 1912 4 SI MM NOT_NAMED 1912-02-10 12:00:00 TS -21.9291 53.0414 main 244 239 _____P___OO___ -1 -21.7872 52.9243 99 -22.0000 53.1000 TC 35 -22.0000 53.1000 2 4 165
1912034S11055 1912 4 SI MM NOT_NAMED 1912-02-10 15:00:00 TS -22.1247 53.1004 main 244 243 _____P___PP___ -1 -21.9807 52.9948 99 -22.1925 53.1425 TC 35 -22.2009 53.1638 2 4 163
1912034S11055 1912 4 SI MM NOT_NAMED 1912-02-10 18:00:00 TS -22.3267 53.1683 main 243 243 _____P___OP___ -1 -22.1725 53.0699 99 -22.4000 53.2000 TC 35 -22.4075 53.2350 2 4 161
1912034S11055 1912 4 SI MM NOT_NAMED 1912-02-10 21:00:00 TS -22.5264 53.2517 main 246 246 _____P___PP___ -1 -22.3615 53.1488 99 -22.6075 53.2925 TC 35 -22.6103 53.3138 2 4 157
1912034S11055 1912 4 SI MM NOT_NAMED 1912-02-11 00:00:00 TS -22.7155 53.3435 main 258 250 _____P___OO___ -1 -22.5465 53.2306 99 -22.8000 53.4000 TC 35 -22.8000 53.4000 2 4 155
1912034S11055 1912 4 SI MM NOT_NAMED 1912-02-11 03:00:00 TS -22.8828 53.4359 main 265 257 _____P___PP___ -1 -22.7264 53.3146 99 -22.9575 53.5000 TC 35 -22.9644 53.4929 2 4 152
1912034S11055 1912 4 SI MM NOT_NAMED 1912-02-11 06:00:00 TS -23.0383 53.5309 reunion main 265 265 _____O___OP___ -1 -22.9000 53.4000 99 9.90000 -23.1000 53.6000 TC 35 -23.1150 53.5926 2 4 150
1912034S11055 1912 4 SI MM NOT_NAMED 1912-02-11 09:00:00 TS -23.1907 53.6251 main 275 268 _____P___PP___ -1 -23.0639 53.4792 99 -23.2500 53.7000 TC 35 -23.2581 53.6960 2 4 150
1912034S11055 1912 4 SI MM NOT_NAMED 1912-02-11 12:00:00 TS -23.3405 53.7200 main 277 277 _____P___OO___ -1 -23.2215 53.5601 99 -23.4000 53.8000 TC 35 -23.4000 53.8000 2 3 150
1912034S11055 1912 4 SI MM NOT_NAMED 1912-02-11 15:00:00 TS -23.4898 53.8150 main 290 290 _____P___PP___ -1 -23.3739 53.6429 99 -23.5500 53.9000 TC 35 -23.5456 53.9021 2 3 151
1912034S11055 1912 4 SI MM NOT_NAMED 1912-02-11 18:00:00 TS -23.6274 53.8919 main 294 294 _____P___OP___ -1 -23.5223 53.7281 99 -23.7000 54.0000 TC 35 -23.6950 54.0023 2 3 154
1912034S11055 1912 4 SI MM NOT_NAMED 1912-02-11 21:00:00 TS -23.7582 53.9583 main 309 309 _____P___PP___ -1 -23.6680 53.8160 99 -23.8500 54.1000 TC 35 -23.8469 54.1014 2 3 157
1912034S11055 1912 4 SI MM NOT_NAMED 1912-02-12 00:00:00 TS -23.8747 54.0047 main 319 319 _____P___OO___ -1 -23.8121 53.9070 99 -24.0000 54.2000 TC 35 -24.0000 54.2000 2 2 168
1912034S11055 1912 4 SI MM NOT_NAMED 1912-02-12 03:00:00 NR -23.9557 54.0015 main 329 325 _____P________ -1 -23.9557 54.0015 99 TC 2 2 159
1912034S11055 1912 4 SI MM NOT_NAMED 1912-02-12 06:00:00 NR -24.1000 54.1000 reunion main 336 336 _____O________ -1 -24.1000 54.1000 99 9.90000 2 3 158
1912034S11055 1912 4 SI MM NOT_NAMED 1912-02-12 09:00:00 NR -24.2600 54.1390 main 357 353 _____P________ -1 -24.2600 54.1390 99 2 3 168
1912034S11055 1912 4 SI MM NOT_NAMED 1912-02-12 12:00:00 NR -24.4214 54.1742 main 364 364 _____P________ -1 -24.4214 54.1742 99 3 168
1912034S11055 1912 4 SI MM NOT_NAMED 1912-02-12 15:00:00 NR -24.5819 54.2180 main 385 385 _____P________ -1 -24.5819 54.2180 99 3 163
1912034S11055 1912 4 SI MM NOT_NAMED 1912-02-12 18:00:00 NR -24.7396 54.2826 main 392 392 _____P________ -1 -24.7396 54.2826 99 3 154
1912034S11055 1912 4 SI MM NOT_NAMED 1912-02-12 21:00:00 NR -24.8925 54.3806 main 409 409 _____P________ -1 -24.8925 54.3806 99 4 144
1912034S11055 1912 4 SI MM NOT_NAMED 1912-02-13 00:00:00 NR -25.0383 54.5244 main 417 417 _____P________ -1 -25.0383 54.5244 99 4 132
1912034S11055 1912 4 SI MM NOT_NAMED 1912-02-13 03:00:00 NR -25.1749 54.7267 main 434 430 _____P________ -1 -25.1749 54.7267 99 5 121
1912034S11055 1912 4 SI MM NOT_NAMED 1912-02-13 06:00:00 NR -25.3000 55.0000 reunion main 440 438 _____O________ -1 -25.3000 55.0000 99 9.90000 6 113
1912034S11055 1912 4 SI MM NOT_NAMED 1912-02-13 09:00:00 NR -25.4117 55.3532 main 447 447 _____P________ -1 -25.4117 55.3532 99 7 107
1912034S11055 1912 4 SI MM NOT_NAMED 1912-02-13 12:00:00 NR -25.5104 55.7798 main 458 458 _____P________ -1 -25.5104 55.7798 99 8 103
1912034S11055 1912 4 SI MM NOT_NAMED 1912-02-13 15:00:00 NR -25.5974 56.2696 main 474 474 _____P________ -1 -25.5974 56.2696 99 9 100
1912034S11055 1912 4 SI MM NOT_NAMED 1912-02-13 18:00:00 NR -25.6738 56.8122 main 495 495 _____P________ -1 -25.6738 56.8122 99 10 98
1912034S11055 1912 4 SI MM NOT_NAMED 1912-02-13 21:00:00 NR -25.7408 57.3970 main 514 514 _____P________ -1 -25.7408 57.3970 99 11 97
1912034S11055 1912 4 SI MM NOT_NAMED 1912-02-14 00:00:00 NR -25.7997 58.0137 main 549 549 _____P________ -1 -25.7997 58.0137 99 11 96
1912034S11055 1912 4 SI MM NOT_NAMED 1912-02-14 03:00:00 NR -25.8523 58.6515 main 592 592 _____P________ -1 -25.8523 58.6515 99 12 95
1912034S11055 1912 4 SI MM NOT_NAMED 1912-02-14 06:00:00 NR -25.9000 59.3000 reunion main 625 _____O________ -1 -25.9000 59.3000 99 9.90000 12 95

About IBTrACS Database

This database is a web-friendly format of International Best Track Archive for Climate Stewardship (IBTrACS), a global best track data archive curated by NOAA dating back to 1842.

Updated: 2021-12-08